sensor_id;sensor_type;location;lat;lon;timestamp;temperature;humidity
24446;DHT22;13347;50.984;5.822;2023-02-21T12:14:23;8.30;1.00
24446;DHT22;13347;50.984;5.822;2023-02-21T12:16:54;8.20;1.00
24446;DHT22;13347;50.984;5.822;2023-02-21T12:19:27;8.30;1.00
24446;DHT22;13347;50.984;5.822;2023-02-21T12:21:59;8.50;1.00
24446;DHT22;13347;50.984;5.822;2023-02-21T12:24:31;8.40;1.00
24446;DHT22;13347;50.984;5.822;2023-02-21T12:27:04;8.30;1.00
24446;DHT22;13347;50.984;5.822;2023-02-21T12:29:44;8.30;1.00
24446;DHT22;13347;50.984;5.822;2023-02-21T12:32:26;8.30;1.00
24446;DHT22;13347;50.984;5.822;2023-02-21T12:35:17;8.30;1.00
24446;DHT22;13347;50.984;5.822;2023-02-21T12:37:49;8.20;1.00
24446;DHT22;13347;50.984;5.822;2023-02-21T12:40:19;8.20;1.00
24446;DHT22;13347;50.984;5.822;2023-02-21T12:42:55;8.30;1.00
24446;DHT22;13347;50.984;5.822;2023-02-21T12:45:32;8.30;1.00
24446;DHT22;13347;50.984;5.822;2023-02-21T12:48:03;8.40;1.00
24446;DHT22;13347;50.984;5.822;2023-02-21T12:50:32;8.40;1.00
24446;DHT22;13347;50.984;5.822;2023-02-21T12:53:02;8.40;1.00
24446;DHT22;13347;50.984;5.822;2023-02-21T12:55:32;8.20;1.00
24446;DHT22;13347;50.984;5.822;2023-02-21T12:58:02;8.30;1.00
24446;DHT22;13347;50.984;5.822;2023-02-21T13:00:31;8.20;1.00
24446;DHT22;13347;50.984;5.822;2023-02-21T13:03:04;8.20;1.00
24446;DHT22;13347;50.984;5.822;2023-02-21T13:05:36;8.00;1.00
24446;DHT22;13347;50.984;5.822;2023-02-21T13:08:05;7.80;1.00
24446;DHT22;13347;50.984;5.822;2023-02-21T13:10:38;7.80;2.60
24446;DHT22;13347;50.984;5.822;2023-02-21T13:13:10;7.80;16.20
24446;DHT22;13347;50.984;5.822;2023-02-21T13:15:41;8.00;40.60
24446;DHT22;13347;50.984;5.822;2023-02-21T13:18:18;8.10;38.00
24446;DHT22;13347;50.984;5.822;2023-02-21T13:20:48;8.20;1.00
24446;DHT22;13347;50.984;5.822;2023-02-21T13:23:18;8.10;1.00
24446;DHT22;13347;50.984;5.822;2023-02-21T13:25:50;8.30;1.00
24446;DHT22;13347;50.984;5.822;2023-02-21T13:28:20;8.30;1.00
24446;DHT22;13347;50.984;5.822;2023-02-21T13:30:50;8.30;1.00
24446;DHT22;13347;50.984;5.822;2023-02-21T13:33:26;8.40;1.00
24446;DHT22;13347;50.984;5.822;2023-02-21T13:35:55;8.40;1.00
24446;DHT22;13347;50.984;5.822;2023-02-21T13:38:23;8.40;1.00
24446;DHT22;13347;50.984;5.822;2023-02-21T13:40:52;8.60;1.00
24446;DHT22;13347;50.984;5.822;2023-02-21T13:43:21;8.80;1.00
24446;DHT22;13347;50.984;5.822;2023-02-21T13:45:51;8.80;1.00
24446;DHT22;13347;50.984;5.822;2023-02-21T13:48:22;8.90;1.00
24446;DHT22;13347;50.984;5.822;2023-02-21T13:50:50;8.80;1.00
24446;DHT22;13347;50.984;5.822;2023-02-21T13:53:18;8.80;1.00
24446;DHT22;13347;50.984;5.822;2023-02-21T13:58:34;8.90;1.00
24446;DHT22;13347;50.984;5.822;2023-02-21T14:03:49;9.30;1.00
24446;DHT22;13347;50.984;5.822;2023-02-21T14:06:35;9.20;1.00
24446;DHT22;13347;50.984;5.822;2023-02-21T14:09:10;9.20;1.00
24446;DHT22;13347;50.984;5.822;2023-02-21T14:11:42;9.30;1.00
24446;DHT22;13347;50.984;5.822;2023-02-21T14:14:20;9.50;99.90
24446;DHT22;13347;50.984;5.822;2023-02-21T14:16:48;9.50;1.00
24446;DHT22;13347;50.984;5.822;2023-02-21T14:19:19;9.40;1.00
24446;DHT22;13347;50.984;5.822;2023-02-21T14:21:49;9.40;1.00
24446;DHT22;13347;50.984;5.822;2023-02-21T14:24:18;9.30;1.00
24446;DHT22;13347;50.984;5.822;2023-02-21T14:26:48;9.40;1.00
24446;DHT22;13347;50.984;5.822;2023-02-21T14:29:32;9.60;1.00
24446;DHT22;13347;50.984;5.822;2023-02-21T14:34:50;9.90;1.00
24446;DHT22;13347;50.984;5.822;2023-02-21T14:37:20;9.90;1.00
24446;DHT22;13347;50.984;5.822;2023-02-21T14:39:50;10.00;1.00
24446;DHT22;13347;50.984;5.822;2023-02-21T14:45:18;10.10;1.00
24446;DHT22;13347;50.984;5.822;2023-02-21T14:47:51;9.70;1.00
24446;DHT22;13347;50.984;5.822;2023-02-21T14:50:29;9.70;1.00
24446;DHT22;13347;50.984;5.822;2023-02-21T14:55:47;9.50;1.00
24446;DHT22;13347;50.984;5.822;2023-02-21T14:58:28;9.70;99.90
24446;DHT22;13347;50.984;5.822;2023-02-21T15:01:03;9.60;1.00
24446;DHT22;13347;50.984;5.822;2023-02-21T15:03:33;9.60;1.00
24446;DHT22;13347;50.984;5.822;2023-02-21T15:06:04;9.70;1.00
24446;DHT22;13347;50.984;5.822;2023-02-21T15:08:39;9.70;1.00
24446;DHT22;13347;50.984;5.822;2023-02-21T15:11:12;9.60;99.90
24446;DHT22;13347;50.984;5.822;2023-02-21T15:13:41;9.50;99.90
24446;DHT22;13347;50.984;5.822;2023-02-21T15:16:09;9.20;1.00
24446;DHT22;13347;50.984;5.822;2023-02-21T15:18:36;9.10;1.00
24446;DHT22;13347;50.984;5.822;2023-02-21T15:21:06;9.00;1.00
24446;DHT22;13347;50.984;5.822;2023-02-21T15:23:33;8.90;1.00
24446;DHT22;13347;50.984;5.822;2023-02-21T15:26:01;9.10;1.00
24446;DHT22;13347;50.984;5.822;2023-02-21T15:28:36;9.00;1.00
24446;DHT22;13347;50.984;5.822;2023-02-21T15:31:04;8.70;1.00
24446;DHT22;13347;50.984;5.822;2023-02-21T15:33:33;8.50;1.00
24446;DHT22;13347;50.984;5.822;2023-02-21T15:36:02;8.50;1.00
24446;DHT22;13347;50.984;5.822;2023-02-21T15:38:32;8.50;99.90
24446;DHT22;13347;50.984;5.822;2023-02-21T15:41:01;8.70;1.00
24446;DHT22;13347;50.984;5.822;2023-02-21T15:43:30;8.80;99.90
24446;DHT22;13347;50.984;5.822;2023-02-21T15:45:59;8.80;99.90
24446;DHT22;13347;50.984;5.822;2023-02-21T15:48:27;8.70;99.90
24446;DHT22;13347;50.984;5.822;2023-02-21T15:50:54;8.60;99.90
24446;DHT22;13347;50.984;5.822;2023-02-21T15:53:27;8.50;99.90
24446;DHT22;13347;50.984;5.822;2023-02-21T15:56:13;8.60;99.90
24446;DHT22;13347;50.984;5.822;2023-02-21T15:58:40;8.50;99.90
24446;DHT22;13347;50.984;5.822;2023-02-21T16:01:27;8.50;1.00
24446;DHT22;13347;50.984;5.822;2023-02-21T16:04:05;8.40;1.00
24446;DHT22;13347;50.984;5.822;2023-02-21T16:06:43;8.30;1.00
24446;DHT22;13347;50.984;5.822;2023-02-21T16:09:17;8.30;1.00
24446;DHT22;13347;50.984;5.822;2023-02-21T16:11:50;8.30;1.00
24446;DHT22;13347;50.984;5.822;2023-02-21T16:14:20;8.10;1.00
24446;DHT22;13347;50.984;5.822;2023-02-21T16:16:48;8.00;1.00
24446;DHT22;13347;50.984;5.822;2023-02-21T16:19:19;7.70;1.00
24446;DHT22;13347;50.984;5.822;2023-02-21T16:21:47;7.60;1.00
24446;DHT22;13347;50.984;5.822;2023-02-21T16:24:15;7.60;1.00
24446;DHT22;13347;50.984;5.822;2023-02-21T16:27:01;7.70;1.00
24446;DHT22;13347;50.984;5.822;2023-02-21T16:29:28;7.50;1.00
24446;DHT22;13347;50.984;5.822;2023-02-21T16:31:55;7.50;1.00
24446;DHT22;13347;50.984;5.822;2023-02-21T16:34:25;7.50;1.00
24446;DHT22;13347;50.984;5.822;2023-02-21T16:36:59;7.50;1.00
24446;DHT22;13347;50.984;5.822;2023-02-21T16:39:26;7.40;1.00
24446;DHT22;13347;50.984;5.822;2023-02-21T16:41:55;7.40;1.00
24446;DHT22;13347;50.984;5.822;2023-02-21T16:44:23;7.20;1.00
24446;DHT22;13347;50.984;5.822;2023-02-21T16:46:50;7.00;22.30
24446;DHT22;13347;50.984;5.822;2023-02-21T16:49:17;7.00;51.20
24446;DHT22;13347;50.984;5.822;2023-02-21T16:51:44;6.90;63.90
24446;DHT22;13347;50.984;5.822;2023-02-21T16:54:11;6.80;85.40
24446;DHT22;13347;50.984;5.822;2023-02-21T16:56:39;6.70;94.90
24446;DHT22;13347;50.984;5.822;2023-02-21T16:59:07;6.60;99.90
24446;DHT22;13347;50.984;5.822;2023-02-21T17:01:36;6.50;99.90
24446;DHT22;13347;50.984;5.822;2023-02-21T17:04:04;6.40;99.90
24446;DHT22;13347;50.984;5.822;2023-02-21T17:06:32;6.30;99.90
24446;DHT22;13347;50.984;5.822;2023-02-21T17:08:59;6.40;99.90
24446;DHT22;13347;50.984;5.822;2023-02-21T17:11:26;6.30;99.90
24446;DHT22;13347;50.984;5.822;2023-02-21T17:13:53;6.20;99.90
24446;DHT22;13347;50.984;5.822;2023-02-21T17:16:20;6.20;99.90
24446;DHT22;13347;50.984;5.822;2023-02-21T17:18:49;6.30;99.90
24446;DHT22;13347;50.984;5.822;2023-02-21T17:21:16;6.40;99.90
24446;DHT22;13347;50.984;5.822;2023-02-21T17:23:42;6.40;99.90
24446;DHT22;13347;50.984;5.822;2023-02-21T17:26:09;6.40;99.90
24446;DHT22;13347;50.984;5.822;2023-02-21T17:28:37;6.30;99.90
24446;DHT22;13347;50.984;5.822;2023-02-21T17:31:04;6.30;99.90
24446;DHT22;13347;50.984;5.822;2023-02-21T17:33:31;6.50;99.90
24446;DHT22;13347;50.984;5.822;2023-02-21T17:36:01;6.60;99.90
24446;DHT22;13347;50.984;5.822;2023-02-21T17:38:28;6.60;99.90
24446;DHT22;13347;50.984;5.822;2023-02-21T17:40:55;6.60;99.90
24446;DHT22;13347;50.984;5.822;2023-02-21T17:43:22;6.50;99.90
24446;DHT22;13347;50.984;5.822;2023-02-21T17:45:49;6.50;99.90
24446;DHT22;13347;50.984;5.822;2023-02-21T17:48:16;6.60;99.90
24446;DHT22;13347;50.984;5.822;2023-02-21T17:50:43;6.50;99.90
24446;DHT22;13347;50.984;5.822;2023-02-21T17:53:11;6.50;99.90
24446;DHT22;13347;50.984;5.822;2023-02-21T17:55:38;6.50;99.90
24446;DHT22;13347;50.984;5.822;2023-02-21T17:58:05;6.60;99.90
24446;DHT22;13347;50.984;5.822;2023-02-21T18:00:32;6.60;99.90
24446;DHT22;13347;50.984;5.822;2023-02-21T18:03:00;6.60;99.90
24446;DHT22;13347;50.984;5.822;2023-02-21T18:05:28;6.70;99.90
24446;DHT22;13347;50.984;5.822;2023-02-21T18:07:56;6.70;99.90
24446;DHT22;13347;50.984;5.822;2023-02-21T18:10:25;6.70;99.90
24446;DHT22;13347;50.984;5.822;2023-02-21T18:12:52;6.60;99.90
24446;DHT22;13347;50.984;5.822;2023-02-21T18:15:19;6.70;99.90
24446;DHT22;13347;50.984;5.822;2023-02-21T18:17:46;6.70;99.90
24446;DHT22;13347;50.984;5.822;2023-02-21T18:20:13;6.80;99.90
24446;DHT22;13347;50.984;5.822;2023-02-21T18:22:40;6.80;99.90
24446;DHT22;13347;50.984;5.822;2023-02-21T18:25:08;6.80;99.90
24446;DHT22;13347;50.984;5.822;2023-02-21T18:27:36;6.90;99.90
24446;DHT22;13347;50.984;5.822;2023-02-21T18:30:03;6.90;99.90
24446;DHT22;13347;50.984;5.822;2023-02-21T18:32:30;6.70;99.90
24446;DHT22;13347;50.984;5.822;2023-02-21T18:34:57;6.80;99.90
24446;DHT22;13347;50.984;5.822;2023-02-21T18:37:28;6.90;99.90
24446;DHT22;13347;50.984;5.822;2023-02-21T18:39:55;6.90;99.90
24446;DHT22;13347;50.984;5.822;2023-02-21T18:42:22;6.80;99.90
24446;DHT22;13347;50.984;5.822;2023-02-21T18:44:50;6.90;99.90
24446;DHT22;13347;50.984;5.822;2023-02-21T18:47:18;7.00;99.90
24446;DHT22;13347;50.984;5.822;2023-02-21T18:49:45;7.00;99.90
24446;DHT22;13347;50.984;5.822;2023-02-21T18:52:12;7.00;99.90
24446;DHT22;13347;50.984;5.822;2023-02-21T18:54:41;6.90;99.90
24446;DHT22;13347;50.984;5.822;2023-02-21T18:57:08;6.80;99.90
24446;DHT22;13347;50.984;5.822;2023-02-21T18:59:35;6.80;99.90
24446;DHT22;13347;50.984;5.822;2023-02-21T19:02:04;6.70;99.90
24446;DHT22;13347;50.984;5.822;2023-02-21T19:04:31;6.70;99.90
24446;DHT22;13347;50.984;5.822;2023-02-21T19:06:58;6.70;99.90
24446;DHT22;13347;50.984;5.822;2023-02-21T19:09:30;6.80;99.90
24446;DHT22;13347;50.984;5.822;2023-02-21T19:11:57;6.70;99.90
24446;DHT22;13347;50.984;5.822;2023-02-21T19:14:24;6.70;99.90
24446;DHT22;13347;50.984;5.822;2023-02-21T19:16:51;6.70;99.90
24446;DHT22;13347;50.984;5.822;2023-02-21T19:19:19;6.70;99.90
24446;DHT22;13347;50.984;5.822;2023-02-21T19:21:47;6.70;99.90
24446;DHT22;13347;50.984;5.822;2023-02-21T19:24:14;6.60;99.90
24446;DHT22;13347;50.984;5.822;2023-02-21T19:26:41;6.70;99.90
24446;DHT22;13347;50.984;5.822;2023-02-21T19:29:08;6.70;99.90
24446;DHT22;13347;50.984;5.822;2023-02-21T19:31:35;6.70;99.90
24446;DHT22;13347;50.984;5.822;2023-02-21T19:34:02;6.70;99.90
24446;DHT22;13347;50.984;5.822;2023-02-21T19:36:31;6.90;99.90
24446;DHT22;13347;50.984;5.822;2023-02-21T19:38:57;6.80;99.90
24446;DHT22;13347;50.984;5.822;2023-02-21T19:41:24;6.80;99.90
24446;DHT22;13347;50.984;5.822;2023-02-21T19:43:52;6.80;99.90
24446;DHT22;13347;50.984;5.822;2023-02-21T19:46:20;6.80;99.90
24446;DHT22;13347;50.984;5.822;2023-02-21T19:48:47;6.70;99.90
24446;DHT22;13347;50.984;5.822;2023-02-21T19:51:14;6.70;99.90
24446;DHT22;13347;50.984;5.822;2023-02-21T19:53:42;6.70;99.90
24446;DHT22;13347;50.984;5.822;2023-02-21T19:56:09;6.60;99.90
24446;DHT22;13347;50.984;5.822;2023-02-21T19:58:36;6.60;99.90
24446;DHT22;13347;50.984;5.822;2023-02-21T20:01:03;6.70;99.90
24446;DHT22;13347;50.984;5.822;2023-02-21T20:03:30;6.60;99.90
24446;DHT22;13347;50.984;5.822;2023-02-21T20:05:58;6.70;99.90
24446;DHT22;13347;50.984;5.822;2023-02-21T20:08:26;6.60;99.90
24446;DHT22;13347;50.984;5.822;2023-02-21T20:10:55;6.70;99.90
24446;DHT22;13347;50.984;5.822;2023-02-21T20:13:22;6.50;99.90
24446;DHT22;13347;50.984;5.822;2023-02-21T20:15:49;6.50;99.90
24446;DHT22;13347;50.984;5.822;2023-02-21T20:18:16;6.50;99.90
24446;DHT22;13347;50.984;5.822;2023-02-21T20:20:43;6.50;99.90
24446;DHT22;13347;50.984;5.822;2023-02-21T20:23:10;6.50;99.90
24446;DHT22;13347;50.984;5.822;2023-02-21T20:25:37;6.40;99.90
24446;DHT22;13347;50.984;5.822;2023-02-21T20:28:05;6.40;99.90
24446;DHT22;13347;50.984;5.822;2023-02-21T20:30:32;6.50;99.90
24446;DHT22;13347;50.984;5.822;2023-02-21T20:32:59;6.40;99.90
24446;DHT22;13347;50.984;5.822;2023-02-21T20:35:26;6.30;99.90
24446;DHT22;13347;50.984;5.822;2023-02-21T20:37:54;6.20;99.90
24446;DHT22;13347;50.984;5.822;2023-02-21T20:40:25;6.10;99.90
24446;DHT22;13347;50.984;5.822;2023-02-21T20:42:52;6.10;99.90
24446;DHT22;13347;50.984;5.822;2023-02-21T20:45:21;6.20;99.90
24446;DHT22;13347;50.984;5.822;2023-02-21T20:47:48;6.10;99.90
24446;DHT22;13347;50.984;5.822;2023-02-21T20:50:16;6.10;99.90
24446;DHT22;13347;50.984;5.822;2023-02-21T20:52:44;6.30;99.90
24446;DHT22;13347;50.984;5.822;2023-02-21T20:55:11;6.20;99.90
24446;DHT22;13347;50.984;5.822;2023-02-21T20:57:40;6.30;99.90
24446;DHT22;13347;50.984;5.822;2023-02-21T21:00:08;6.20;99.90
24446;DHT22;13347;50.984;5.822;2023-02-21T21:02:36;6.20;99.90
24446;DHT22;13347;50.984;5.822;2023-02-21T21:05:04;6.30;99.90
24446;DHT22;13347;50.984;5.822;2023-02-21T21:07:38;6.20;99.90
24446;DHT22;13347;50.984;5.822;2023-02-21T21:10:05;6.20;99.90
24446;DHT22;13347;50.984;5.822;2023-02-21T21:12:34;6.10;99.90
24446;DHT22;13347;50.984;5.822;2023-02-21T21:15:01;6.20;99.90
24446;DHT22;13347;50.984;5.822;2023-02-21T21:17:28;6.20;99.90
24446;DHT22;13347;50.984;5.822;2023-02-21T21:19:57;6.10;99.90
24446;DHT22;13347;50.984;5.822;2023-02-21T21:22:24;6.00;99.90
24446;DHT22;13347;50.984;5.822;2023-02-21T21:24:52;6.00;99.90
24446;DHT22;13347;50.984;5.822;2023-02-21T21:27:19;6.00;99.90
24446;DHT22;13347;50.984;5.822;2023-02-21T21:29:47;5.90;99.90
24446;DHT22;13347;50.984;5.822;2023-02-21T21:32:15;5.80;99.90
24446;DHT22;13347;50.984;5.822;2023-02-21T21:34:42;5.70;99.90
24446;DHT22;13347;50.984;5.822;2023-02-21T21:37:11;5.80;99.90
24446;DHT22;13347;50.984;5.822;2023-02-21T21:39:41;5.80;99.90
24446;DHT22;13347;50.984;5.822;2023-02-21T21:42:08;5.80;99.90
24446;DHT22;13347;50.984;5.822;2023-02-21T21:44:36;5.90;99.90
24446;DHT22;13347;50.984;5.822;2023-02-21T21:47:04;5.90;99.90
24446;DHT22;13347;50.984;5.822;2023-02-21T21:49:32;5.90;99.90
24446;DHT22;13347;50.984;5.822;2023-02-21T21:52:00;5.90;99.90
24446;DHT22;13347;50.984;5.822;2023-02-21T21:54:31;6.00;99.90
24446;DHT22;13347;50.984;5.822;2023-02-21T21:57:00;5.80;99.90
24446;DHT22;13347;50.984;5.822;2023-02-21T21:59:28;5.80;99.90
24446;DHT22;13347;50.984;5.822;2023-02-21T22:01:56;5.90;99.90
24446;DHT22;13347;50.984;5.822;2023-02-21T22:04:24;5.90;99.90
24446;DHT22;13347;50.984;5.822;2023-02-21T22:06:52;5.90;99.90
24446;DHT22;13347;50.984;5.822;2023-02-21T22:09:19;5.80;99.90
24446;DHT22;13347;50.984;5.822;2023-02-21T22:11:48;6.00;99.90
24446;DHT22;13347;50.984;5.822;2023-02-21T22:14:15;5.90;99.90
24446;DHT22;13347;50.984;5.822;2023-02-21T22:16:44;5.80;99.90
24446;DHT22;13347;50.984;5.822;2023-02-21T22:19:11;5.90;99.90
24446;DHT22;13347;50.984;5.822;2023-02-21T22:21:38;6.00;99.90
24446;DHT22;13347;50.984;5.822;2023-02-21T22:24:07;6.00;99.90
24446;DHT22;13347;50.984;5.822;2023-02-21T22:26:34;6.00;99.90
24446;DHT22;13347;50.984;5.822;2023-02-21T22:29:05;6.10;99.90
24446;DHT22;13347;50.984;5.822;2023-02-21T22:31:32;6.10;99.90
24446;DHT22;13347;50.984;5.822;2023-02-21T22:33:59;6.10;99.90
24446;DHT22;13347;50.984;5.822;2023-02-21T22:36:26;6.10;99.90
24446;DHT22;13347;50.984;5.822;2023-02-21T22:38:53;6.00;99.90
24446;DHT22;13347;50.984;5.822;2023-02-21T22:41:21;6.10;99.90
24446;DHT22;13347;50.984;5.822;2023-02-21T22:43:49;6.10;99.90
24446;DHT22;13347;50.984;5.822;2023-02-21T22:46:18;6.10;99.90
24446;DHT22;13347;50.984;5.822;2023-02-21T22:48:45;6.10;99.90
24446;DHT22;13347;50.984;5.822;2023-02-21T22:51:12;6.20;99.90
